createdAt,value
2023-05-24T00:01:25.852Z,60.89
2023-05-24T00:03:59.072Z,61.20
2023-05-24T00:06:28.120Z,61.14
2023-05-24T00:08:56.657Z,61.32
2023-05-24T00:11:24.516Z,61.32
2023-05-24T00:13:52.411Z,61.33
2023-05-24T00:16:20.926Z,61.28
2023-05-24T00:18:49.222Z,61.12
2023-05-24T00:21:17.115Z,61.12
2023-05-24T00:23:45.623Z,61.18
2023-05-24T00:26:13.530Z,61.07
2023-05-24T00:28:41.562Z,61.13
2023-05-24T00:31:09.618Z,61.01
2023-05-24T00:33:37.467Z,60.82
2023-05-24T00:36:05.989Z,61.08
2023-05-24T00:38:34.081Z,60.85
2023-05-24T00:41:02.121Z,61.01
2023-05-24T00:43:30.007Z,61.08
2023-05-24T00:46:16.481Z,61.21
2023-05-24T00:48:45.774Z,61.21
2023-05-24T00:51:14.910Z,61.12
2023-05-24T00:53:46.300Z,61.33
2023-05-24T00:56:15.272Z,61.25
2023-05-24T00:58:44.123Z,61.51
2023-05-24T01:01:12.843Z,61.56
2023-05-24T01:03:41.816Z,61.32
2023-05-24T01:06:10.044Z,61.43
2023-05-24T01:08:53.143Z,61.58
2023-05-24T01:11:27.637Z,61.71
2023-05-24T01:14:14.475Z,62.14
2023-05-24T01:16:52.056Z,62.38
2023-05-24T01:19:32.172Z,62.35
2023-05-24T01:22:21.513Z,62.16
2023-05-24T01:25:27.999Z,62.06
2023-05-24T01:27:58.146Z,62.19
2023-05-24T01:30:28.789Z,62.16
2023-05-24T01:32:57.413Z,61.98
2023-05-24T01:35:25.454Z,61.59
2023-05-24T01:37:53.325Z,62.54
2023-05-24T01:40:21.250Z,62.77
2023-05-24T01:42:54.507Z,63.19
2023-05-24T01:45:31.478Z,63.08
2023-05-24T01:48:19.341Z,63.15
2023-05-24T01:50:57.906Z,63.35
2023-05-24T01:53:32.902Z,63.42
2023-05-24T01:56:06.303Z,63.88
2023-05-24T01:58:36.687Z,63.77
2023-05-24T02:01:05.138Z,63.87
2023-05-24T02:03:34.074Z,63.81
2023-05-24T02:06:03.832Z,64.06
2023-05-24T02:08:31.717Z,64.20
2023-05-24T02:10:59.597Z,64.02
2023-05-24T02:13:27.592Z,63.68
2023-05-24T02:15:55.465Z,63.67
2023-05-24T02:18:23.526Z,63.78
2023-05-24T02:20:51.452Z,63.73
2023-05-24T02:23:19.501Z,63.86
2023-05-24T02:25:47.358Z,64.53
2023-05-24T02:28:16.103Z,64.85
2023-05-24T02:30:44.833Z,64.69
2023-05-24T02:33:13.295Z,64.99
2023-05-24T02:35:41.670Z,65.40
2023-05-24T02:38:09.887Z,65.65
2023-05-24T02:40:37.796Z,65.52
2023-05-24T02:43:06.083Z,65.16
2023-05-24T02:45:34.077Z,65.50
2023-05-24T02:48:02.355Z,65.78
2023-05-24T02:50:30.377Z,65.64
2023-05-24T02:52:58.353Z,65.87
2023-05-24T02:55:27.034Z,66.52
2023-05-24T02:57:56.421Z,66.83
2023-05-24T03:00:25.488Z,67.19
2023-05-24T03:02:55.683Z,67.61
2023-05-24T03:05:23.712Z,67.56
2023-05-24T03:07:51.721Z,67.69
2023-05-24T03:10:20.591Z,67.85
2023-05-24T03:12:48.504Z,68.36
2023-05-24T03:15:16.654Z,68.35
2023-05-24T03:17:44.703Z,68.47
2023-05-24T03:20:13.170Z,68.71
2023-05-24T03:22:41.617Z,68.65
2023-05-24T03:25:09.970Z,68.87
2023-05-24T03:27:37.909Z,69.29
2023-05-24T03:30:06.867Z,69.50
2023-05-24T05:04:17.179Z,67.59
2023-05-24T05:06:45.265Z,66.56
2023-05-24T05:09:14.857Z,66.18
2023-05-24T05:11:43.491Z,65.69
2023-05-24T05:14:11.685Z,65.10
2023-05-24T05:16:39.671Z,64.77
2023-05-24T05:19:07.563Z,64.04
2023-05-24T05:21:36.519Z,63.80
2023-05-24T05:24:04.471Z,63.28
2023-05-24T05:26:32.543Z,62.60
2023-05-24T05:29:00.434Z,61.68
2023-05-24T05:31:29.857Z,60.54
2023-05-24T05:33:57.816Z,60.64
2023-05-24T05:36:25.789Z,60.33
2023-05-24T05:38:55.026Z,60.01
2023-05-24T05:41:23.019Z,59.48
2023-05-24T05:43:51.162Z,59.17
2023-05-24T05:46:21.004Z,59.02
2023-05-24T05:48:49.367Z,59.89
2023-05-24T05:51:17.485Z,58.84
2023-05-24T05:53:45.335Z,58.70
2023-05-24T05:56:13.229Z,57.79
2023-05-24T05:58:41.174Z,57.75
2023-05-24T06:01:09.050Z,57.52
2023-05-24T06:03:37.190Z,57.93
2023-05-24T06:06:05.383Z,57.66
2023-05-24T06:08:35.315Z,57.06
2023-05-24T06:11:03.699Z,56.80
2023-05-24T06:13:33.080Z,56.50
2023-05-24T06:16:01.399Z,55.48
2023-05-24T06:18:30.665Z,55.98
2023-05-24T06:20:58.681Z,56.24
2023-05-24T06:23:26.707Z,56.37
2023-05-24T06:25:54.726Z,56.08
2023-05-24T06:28:22.953Z,56.37
2023-05-24T06:30:50.963Z,56.20
2023-05-24T06:33:19.292Z,56.31
2023-05-24T06:35:47.299Z,56.07
2023-05-24T06:38:15.235Z,56.51
2023-05-24T06:40:43.338Z,57.05
2023-05-24T06:43:11.490Z,56.76
2023-05-24T06:45:42.480Z,56.99
2023-05-24T06:48:11.278Z,56.70
2023-05-24T06:50:42.347Z,56.82
2023-05-24T06:53:10.662Z,57.17
2023-05-24T06:55:38.615Z,57.45
2023-05-24T06:58:07.180Z,57.27
2023-05-24T07:00:35.033Z,57.02
2023-05-24T07:03:03.727Z,57.16
2023-05-24T07:05:31.754Z,57.48
2023-05-24T07:07:59.799Z,57.41
2023-05-24T07:10:27.866Z,57.06
2023-05-24T07:12:56.349Z,56.39
2023-05-24T07:15:24.251Z,56.68
2023-05-24T07:17:52.867Z,56.95
2023-05-24T07:20:20.988Z,56.87
2023-05-24T07:22:48.943Z,56.66
2023-05-24T07:25:17.618Z,56.63
2023-05-24T07:27:45.837Z,56.78
2023-05-24T07:30:27.696Z,56.24
2023-05-24T07:33:01.851Z,56.41
2023-05-24T07:35:31.232Z,56.05
2023-05-24T07:37:59.190Z,55.93
2023-05-24T07:40:27.169Z,55.82
2023-05-24T07:42:55.197Z,55.96
2023-05-24T07:45:23.084Z,56.06
2023-05-24T07:47:51.041Z,56.79
2023-05-24T07:50:19.236Z,55.87
2023-05-24T07:52:47.180Z,54.15
2023-05-24T07:55:16.246Z,52.26
2023-05-24T07:57:44.148Z,53.40
2023-05-24T08:00:14.990Z,52.39
2023-05-24T08:02:44.388Z,52.02
2023-05-24T08:05:13.572Z,51.95
2023-05-24T08:07:42.087Z,53.04
2023-05-24T08:10:14.167Z,53.66
2023-05-24T08:12:42.632Z,54.01
2023-05-24T08:15:10.990Z,53.33
2023-05-24T08:17:39.586Z,53.57
2023-05-24T08:20:09.836Z,52.39
2023-05-24T08:22:38.350Z,51.71
2023-05-24T08:25:06.948Z,52.48
2023-05-24T08:27:34.936Z,53.12
2023-05-24T08:30:04.452Z,53.10
2023-05-24T08:32:32.619Z,53.01
2023-05-24T08:35:14.863Z,53.47
2023-05-24T08:37:48.184Z,53.47
2023-05-24T08:40:16.811Z,53.48
2023-05-24T08:42:46.505Z,54.29
2023-05-24T08:45:16.054Z,54.82
2023-05-24T08:47:45.695Z,55.34
2023-05-24T08:50:13.702Z,55.08
2023-05-24T08:52:42.628Z,55.36
2023-05-24T08:55:11.692Z,54.80
2023-05-24T08:57:41.501Z,54.62
2023-05-24T09:00:12.065Z,55.30
2023-05-24T09:02:42.116Z,54.32
2023-05-24T09:05:12.638Z,53.47
2023-05-24T09:07:43.853Z,53.49
2023-05-24T09:10:12.081Z,53.39
2023-05-24T09:12:44.806Z,53.45
2023-05-24T09:15:12.995Z,53.35
2023-05-24T09:17:40.965Z,53.77
2023-05-24T09:20:10.455Z,53.74
2023-05-24T09:22:42.514Z,53.44
2023-05-24T09:25:14.362Z,54.16
2023-05-24T09:27:45.056Z,54.01
2023-05-24T09:30:15.698Z,53.95
2023-05-24T09:33:01.333Z,54.42
2023-05-24T09:35:29.882Z,54.87
2023-05-24T09:38:00.054Z,54.44
2023-05-24T09:40:29.538Z,55.10
2023-05-24T09:43:09.703Z,55.15
2023-05-24T09:45:47.544Z,54.81
2023-05-24T09:48:20.290Z,55.34
2023-05-24T09:51:00.551Z,55.35
2023-05-24T09:53:28.851Z,55.25
2023-05-24T09:55:56.871Z,55.68
2023-05-24T09:58:30.386Z,55.75
2023-05-24T10:01:10.998Z,54.98
2023-05-24T10:03:39.366Z,55.43
2023-05-24T10:06:07.931Z,54.85
2023-05-24T10:08:36.736Z,55.22
2023-05-24T10:11:05.838Z,54.72
2023-05-24T10:13:36.358Z,54.28
2023-05-24T10:16:04.675Z,54.64
2023-05-24T10:18:32.974Z,54.69
2023-05-24T10:21:02.966Z,54.64
2023-05-24T10:23:32.629Z,54.73
2023-05-24T10:26:08.213Z,54.67
2023-05-24T10:28:42.616Z,54.55
2023-05-24T10:31:16.113Z,54.72
2023-05-24T10:33:46.463Z,55.63
2023-05-24T10:36:16.236Z,54.84
2023-05-24T10:38:47.180Z,55.08
2023-05-24T10:41:15.555Z,55.00
2023-05-24T10:43:56.686Z,53.64
2023-05-24T10:46:29.478Z,54.41
2023-05-24T10:49:01.535Z,53.96
2023-05-24T10:51:38.805Z,53.11
2023-05-24T10:54:27.459Z,53.27
2023-05-24T10:56:57.037Z,53.55
2023-05-24T10:59:40.080Z,53.55
2023-05-24T11:02:14.161Z,53.95
2023-05-24T11:04:46.427Z,53.42
2023-05-24T11:07:15.876Z,51.82
2023-05-24T11:09:46.915Z,51.60
2023-05-24T11:12:20.852Z,51.58
2023-05-24T11:14:50.783Z,51.49
2023-05-24T11:17:22.457Z,51.39
2023-05-24T11:19:55.355Z,51.39
2023-05-24T11:22:27.066Z,51.93
2023-05-24T11:24:55.232Z,51.53
2023-05-24T11:27:24.310Z,51.87
2023-05-24T11:29:52.853Z,51.42
2023-05-24T11:32:22.026Z,51.14
2023-05-24T11:34:51.197Z,51.83
2023-05-24T11:37:22.507Z,51.90
2023-05-24T11:39:56.921Z,52.65
2023-05-24T11:42:24.930Z,51.65
2023-05-24T11:44:53.664Z,51.47
2023-05-24T11:47:22.683Z,51.69
2023-05-24T11:49:52.007Z,52.29
2023-05-24T11:52:20.396Z,52.42
2023-05-24T11:54:49.698Z,51.55
2023-05-24T11:57:22.939Z,51.68
2023-05-24T11:59:50.993Z,51.56
2023-05-24T12:02:19.920Z,52.20
2023-05-24T12:04:47.907Z,52.17
2023-05-24T12:07:16.649Z,52.75
2023-05-24T12:09:44.836Z,51.84
2023-05-24T12:12:12.912Z,52.02
2023-05-24T12:14:40.900Z,52.00
2023-05-24T12:17:16.446Z,53.95
2023-05-24T12:19:44.983Z,54.31
2023-05-24T12:22:13.054Z,54.99
2023-05-24T12:24:42.547Z,54.95
2023-05-24T12:27:11.430Z,54.92
2023-05-24T12:29:42.640Z,54.42
2023-05-24T12:32:15.533Z,54.71
2023-05-24T12:34:45.106Z,55.00
2023-05-24T12:37:17.713Z,55.15
2023-05-24T12:39:45.703Z,55.26
2023-05-24T12:42:13.870Z,54.87
2023-05-24T12:44:42.481Z,55.83
2023-05-24T12:47:10.632Z,56.44
2023-05-24T12:49:38.784Z,56.32
2023-05-24T12:52:07.168Z,57.03
2023-05-24T12:54:35.626Z,56.89
2023-05-24T12:57:03.807Z,57.31
2023-05-24T12:59:34.079Z,57.37
2023-05-24T13:02:02.318Z,57.65
2023-05-24T13:04:33.818Z,57.16
2023-05-24T13:07:03.227Z,56.89
2023-05-24T13:09:31.234Z,57.28
2023-05-24T13:11:59.326Z,57.46
2023-05-24T13:14:27.560Z,57.77
2023-05-24T13:16:55.816Z,58.28
2023-05-24T13:19:23.824Z,58.75
2023-05-24T13:21:52.042Z,58.79
2023-05-24T13:24:20.405Z,58.67
2023-05-24T13:26:49.356Z,58.91
2023-05-24T13:29:34.223Z,58.23
2023-05-24T13:32:05.214Z,59.23
2023-05-24T13:34:33.476Z,58.38
2023-05-24T13:37:01.806Z,58.18
2023-05-24T13:39:29.826Z,58.23
2023-05-24T13:41:57.842Z,57.62
2023-05-24T13:44:25.759Z,57.01
2023-05-24T13:46:54.466Z,55.98
2023-05-24T13:49:22.781Z,56.24
2023-05-24T13:51:51.153Z,56.30
2023-05-24T13:54:19.121Z,56.02
2023-05-24T13:56:49.106Z,56.08
2023-05-24T13:59:17.483Z,55.79
2023-05-24T14:01:45.837Z,55.21
2023-05-24T14:04:13.849Z,55.65
2023-05-24T14:06:41.767Z,55.22
2023-05-24T14:09:10.100Z,55.10
2023-05-24T14:11:38.003Z,54.41
2023-05-24T14:16:37.452Z,54.24
2023-05-24T14:19:05.902Z,54.36
2023-05-24T14:21:33.985Z,54.35
2023-05-24T14:24:02.294Z,54.58
2023-05-24T14:26:31.230Z,55.25
2023-05-24T14:28:59.319Z,54.85
2023-05-24T14:31:27.660Z,55.07
2023-05-24T14:33:55.633Z,55.17
2023-05-24T14:36:23.622Z,55.19
2023-05-24T14:38:51.821Z,55.33
2023-05-24T14:41:19.803Z,55.83
2023-05-24T14:43:47.705Z,56.03
2023-05-24T14:46:15.776Z,55.85
2023-05-24T14:48:44.089Z,55.75
2023-05-24T14:51:12.039Z,55.68
2023-05-24T14:53:39.978Z,55.80
2023-05-24T14:56:10.015Z,56.18
2023-05-24T14:58:38.146Z,56.38
2023-05-24T15:01:07.087Z,56.75
2023-05-24T15:03:36.161Z,56.77
2023-05-24T15:06:05.466Z,56.98
2023-05-24T15:08:34.523Z,57.43
2023-05-24T15:11:02.778Z,57.75
2023-05-24T15:13:31.235Z,58.00
2023-05-24T15:16:00.650Z,58.30
2023-05-24T15:18:31.761Z,58.37
2023-05-24T15:20:59.897Z,58.80
2023-05-24T15:23:28.483Z,59.11
2023-05-24T15:25:56.457Z,59.22
2023-05-24T15:28:26.416Z,59.48
2023-05-24T15:30:55.029Z,59.77
2023-05-24T15:33:23.292Z,59.37
2023-05-24T15:35:51.448Z,59.67
2023-05-24T15:38:19.428Z,59.75
2023-05-24T15:40:47.429Z,60.17
2023-05-24T15:43:17.703Z,60.25
2023-05-24T15:45:46.423Z,60.31
2023-05-24T15:48:14.458Z,60.36
2023-05-24T15:53:13.224Z,60.47
2023-05-24T15:55:41.452Z,60.96
2023-05-24T15:58:09.478Z,60.94
2023-05-24T16:00:37.451Z,61.00
2023-05-24T16:03:06.708Z,61.08
2023-05-24T16:05:34.919Z,61.00
2023-05-24T16:08:03.108Z,60.81
2023-05-24T16:10:31.017Z,61.39
2023-05-24T16:12:59.140Z,61.60
2023-05-24T16:15:30.107Z,61.55
2023-05-24T16:17:58.255Z,61.75
2023-05-24T16:20:26.591Z,61.83
2023-05-24T16:22:54.626Z,61.89
2023-05-24T16:25:22.622Z,62.98
2023-05-24T16:27:50.499Z,63.36
2023-05-24T16:30:18.671Z,63.48
2023-05-24T16:32:46.722Z,63.55
2023-05-24T16:35:14.695Z,63.93
2023-05-24T16:37:43.148Z,64.10
2023-05-24T16:40:11.998Z,64.18
2023-05-24T16:42:40.136Z,64.24
2023-05-24T16:45:08.547Z,64.28
2023-05-24T16:47:36.896Z,64.43
2023-05-24T16:50:05.677Z,64.15
2023-05-24T16:52:33.953Z,64.46
2023-05-24T16:55:01.957Z,64.43
2023-05-24T16:57:29.995Z,64.22
2023-05-24T16:59:58.296Z,64.66
2023-05-24T17:02:26.517Z,64.62
2023-05-24T17:04:54.884Z,64.81
2023-05-24T17:07:22.995Z,64.96
2023-05-24T17:09:51.908Z,65.01
2023-05-24T17:12:21.879Z,64.88
2023-05-24T17:14:49.780Z,65.27
2023-05-24T17:17:17.713Z,65.06
2023-05-24T17:19:45.844Z,65.07
2023-05-24T17:22:13.788Z,65.19
2023-05-24T17:24:41.788Z,65.63
2023-05-24T17:27:09.934Z,65.57
2023-05-24T17:29:38.009Z,65.94
2023-05-24T17:32:06.028Z,65.96
2023-05-24T17:34:34.139Z,66.12
2023-05-24T17:37:02.216Z,66.26
2023-05-24T17:39:30.126Z,66.31
2023-05-24T17:41:58.113Z,66.68
2023-05-24T17:44:26.268Z,66.93
2023-05-24T17:46:54.455Z,67.00
2023-05-24T17:49:22.471Z,67.22
2023-05-24T17:51:50.657Z,66.60
2023-05-24T17:54:18.806Z,66.56
2023-05-24T17:56:46.786Z,66.72
2023-05-24T17:59:14.846Z,66.72
2023-05-24T18:01:44.130Z,67.27
2023-05-24T18:04:12.295Z,67.45
2023-05-24T18:06:40.232Z,67.17
2023-05-24T18:09:08.378Z,67.85
2023-05-24T18:11:36.806Z,68.01
2023-05-24T18:14:04.787Z,68.28
2023-05-24T18:16:33.326Z,68.53
2023-05-24T18:19:01.510Z,68.80
2023-05-24T18:21:29.568Z,69.38
2023-05-24T18:23:57.656Z,69.57
2023-05-24T18:26:25.851Z,69.13
2023-05-24T18:28:53.926Z,69.54
2023-05-24T18:31:22.063Z,70.01
2023-05-24T18:33:50.112Z,70.74
2023-05-24T18:36:18.256Z,70.71
2023-05-24T18:38:47.527Z,70.13
2023-05-24T18:41:16.634Z,70.98
2023-05-24T18:43:44.683Z,71.52
2023-05-24T18:46:14.197Z,71.85
2023-05-24T18:48:42.614Z,71.45
2023-05-24T18:51:10.866Z,71.88
2023-05-24T18:53:40.257Z,72.57
2023-05-24T18:56:08.309Z,72.99
2023-05-24T18:58:36.397Z,72.80
2023-05-24T19:01:04.628Z,72.55
2023-05-24T19:03:32.901Z,72.74
2023-05-24T19:06:00.869Z,72.93
2023-05-24T19:08:28.953Z,72.84
2023-05-24T19:10:57.113Z,73.11
2023-05-24T19:13:26.018Z,73.16
2023-05-24T19:15:54.139Z,73.60
2023-05-24T19:18:23.081Z,73.71
2023-05-24T19:20:51.603Z,73.72
2023-05-24T19:23:19.553Z,73.80
2023-05-24T19:25:50.208Z,74.19
2023-05-24T19:28:18.360Z,74.37
2023-05-24T19:30:46.416Z,74.30
2023-05-24T19:33:14.558Z,74.29
2023-05-24T19:35:42.774Z,74.75
2023-05-24T19:38:10.959Z,75.43
2023-05-24T19:40:39.082Z,75.66
2023-05-24T19:43:07.089Z,75.15
2023-05-24T19:45:35.078Z,75.68
2023-05-24T19:48:05.102Z,75.92
2023-05-24T19:50:33.193Z,75.31
2023-05-24T19:53:01.381Z,75.91
2023-05-24T19:55:29.748Z,76.54
2023-05-24T19:57:58.419Z,76.53
2023-05-24T20:00:26.544Z,76.33
2023-05-24T20:02:54.498Z,76.58
2023-05-24T20:05:22.791Z,76.78
2023-05-24T20:07:51.126Z,77.07
2023-05-24T20:10:19.069Z,76.40
2023-05-24T20:12:47.175Z,76.74
2023-05-24T20:15:18.230Z,76.34
2023-05-24T20:17:46.159Z,76.93
2023-05-24T20:20:14.642Z,76.97
2023-05-24T20:22:42.684Z,76.67
2023-05-24T20:25:11.076Z,76.76
2023-05-24T20:27:40.901Z,76.96
2023-05-24T20:30:10.923Z,77.26
2023-05-24T20:32:39.238Z,77.48
2023-05-24T20:35:07.980Z,77.57
2023-05-24T20:37:36.570Z,77.75
2023-05-24T20:40:05.823Z,77.62
2023-05-24T20:42:34.079Z,77.27
2023-05-24T20:45:03.537Z,77.25
2023-05-24T20:47:31.557Z,78.06
2023-05-24T20:49:59.661Z,78.01
2023-05-24T20:52:27.789Z,78.09
2023-05-24T20:54:55.679Z,78.20
2023-05-24T20:57:23.714Z,78.27
2023-05-24T20:59:52.106Z,78.32
2023-05-24T21:02:21.768Z,78.42
2023-05-24T21:04:49.765Z,78.34
2023-05-24T21:07:17.684Z,78.49
2023-05-24T21:09:45.603Z,79.03
2023-05-24T21:12:13.740Z,79.15
2023-05-24T21:14:41.848Z,78.79
2023-05-24T21:17:09.733Z,78.60
2023-05-24T21:19:37.875Z,78.95
2023-05-24T21:22:06.231Z,79.16
2023-05-24T21:24:34.245Z,79.34
2023-05-24T21:27:02.148Z,79.20
2023-05-24T21:29:30.141Z,79.34
2023-05-24T21:31:58.109Z,79.45
2023-05-24T21:34:27.428Z,79.68
2023-05-24T21:36:55.592Z,79.25
2023-05-24T21:39:23.549Z,79.08
2023-05-24T21:41:51.612Z,79.64
2023-05-24T21:44:19.580Z,80.02
2023-05-24T21:46:47.539Z,79.92
2023-05-24T21:49:17.306Z,79.41
2023-05-24T21:51:45.331Z,79.27
2023-05-24T21:54:13.250Z,79.97
2023-05-24T21:56:41.223Z,80.12
2023-05-24T21:59:09.109Z,80.26
2023-05-24T22:01:37.365Z,80.45
2023-05-24T22:04:05.958Z,80.90
2023-05-24T22:06:34.034Z,80.69
2023-05-24T22:09:02.201Z,80.60
2023-05-24T22:11:30.297Z,80.96
2023-05-24T22:13:58.234Z,80.70
2023-05-24T22:16:26.164Z,81.03
2023-05-24T22:18:57.204Z,81.05
2023-05-24T22:21:26.263Z,80.38
2023-05-24T22:23:54.209Z,80.66
2023-05-24T22:26:22.806Z,81.10
2023-05-24T22:28:55.769Z,81.52
2023-05-24T22:31:25.572Z,81.58
2023-05-24T22:33:53.578Z,81.41
2023-05-24T22:36:21.544Z,81.52
2023-05-24T22:38:49.653Z,81.65
2023-05-24T22:41:17.589Z,81.32
2023-05-24T22:43:45.493Z,81.33
2023-05-24T22:46:13.521Z,81.80
2023-05-24T22:48:41.615Z,81.66
2023-05-24T22:51:12.218Z,81.66
2023-05-24T22:53:40.251Z,81.49
2023-05-24T22:56:10.605Z,81.82
2023-05-24T22:58:38.941Z,82.29
2023-05-24T23:01:06.886Z,82.48
2023-05-24T23:03:35.160Z,82.44
2023-05-24T23:06:04.621Z,82.78
2023-05-24T23:08:33.806Z,82.81
2023-05-24T23:11:01.769Z,83.14
2023-05-24T23:13:33.375Z,83.02
2023-05-24T23:16:01.393Z,83.00
2023-05-24T23:18:29.478Z,82.90
2023-05-24T23:20:57.957Z,83.22
2023-05-24T23:23:27.280Z,83.36
2023-05-24T23:25:55.348Z,82.84
2023-05-24T23:28:23.204Z,83.05
2023-05-24T23:30:51.504Z,83.58
2023-05-24T23:33:20.237Z,83.68
2023-05-24T23:35:48.268Z,83.55
2023-05-24T23:38:16.287Z,83.20
2023-05-24T23:40:44.155Z,83.63
2023-05-24T23:43:12.076Z,83.88
2023-05-24T23:45:39.984Z,83.77
2023-05-24T23:48:07.936Z,83.65
2023-05-24T23:50:50.242Z,83.94
2023-05-24T23:53:21.934Z,84.15
2023-05-24T23:55:49.898Z,84.01
2023-05-24T23:58:17.855Z,84.26
